sensor_id;sensor_type;location;lat;lon;timestamp;temperature;humidity
326;DHT22;150;52.352;14.058;2023-08-24T00:01:11;20.10;30.70
326;DHT22;150;52.352;14.058;2023-08-24T00:03:47;20.70;31.20
326;DHT22;150;52.352;14.058;2023-08-24T00:06:36;20.40;30.70
326;DHT22;150;52.352;14.058;2023-08-24T00:12:54;20.30;30.60
326;DHT22;150;52.352;14.058;2023-08-24T00:15:42;20.10;30.40
326;DHT22;150;52.352;14.058;2023-08-24T00:18:15;20.10;30.40
326;DHT22;150;52.352;14.058;2023-08-24T00:20:59;20.10;30.40
326;DHT22;150;52.352;14.058;2023-08-24T00:23:35;20.10;30.40
326;DHT22;150;52.352;14.058;2023-08-24T00:26:18;20.00;30.30
326;DHT22;150;52.352;14.058;2023-08-24T00:29:08;20.00;30.60
326;DHT22;150;52.352;14.058;2023-08-24T00:31:42;20.00;30.40
326;DHT22;150;52.352;14.058;2023-08-24T00:34:17;19.90;30.60
326;DHT22;150;52.352;14.058;2023-08-24T00:37:01;19.90;30.90
326;DHT22;150;52.352;14.058;2023-08-24T00:39:55;19.90;31.00
326;DHT22;150;52.352;14.058;2023-08-24T00:42:33;19.90;30.50
326;DHT22;150;52.352;14.058;2023-08-24T00:45:13;19.90;30.70
326;DHT22;150;52.352;14.058;2023-08-24T00:47:57;19.80;31.20
326;DHT22;150;52.352;14.058;2023-08-24T00:50:32;19.80;30.60
326;DHT22;150;52.352;14.058;2023-08-24T00:53:44;19.80;30.50
326;DHT22;150;52.352;14.058;2023-08-24T00:56:24;19.80;30.90
326;DHT22;150;52.352;14.058;2023-08-24T00:59:08;19.60;31.20
326;DHT22;150;52.352;14.058;2023-08-24T01:01:54;19.70;32.10
326;DHT22;150;52.352;14.058;2023-08-24T01:04:40;19.70;31.60
326;DHT22;150;52.352;14.058;2023-08-24T01:07:28;19.60;31.70
326;DHT22;150;52.352;14.058;2023-08-24T01:10:08;20.00;32.40
326;DHT22;150;52.352;14.058;2023-08-24T01:12:56;19.50;31.70
326;DHT22;150;52.352;14.058;2023-08-24T01:15:47;19.60;32.40
326;DHT22;150;52.352;14.058;2023-08-24T01:18:40;19.50;32.60
326;DHT22;150;52.352;14.058;2023-08-24T01:21:19;19.60;32.60
326;DHT22;150;52.352;14.058;2023-08-24T01:24:00;19.60;32.70
326;DHT22;150;52.352;14.058;2023-08-24T01:26:35;19.60;32.50
326;DHT22;150;52.352;14.058;2023-08-24T01:29:17;19.60;32.30
326;DHT22;150;52.352;14.058;2023-08-24T01:32:09;19.60;32.70
326;DHT22;150;52.352;14.058;2023-08-24T01:35:11;19.60;32.20
326;DHT22;150;52.352;14.058;2023-08-24T01:37:47;19.60;32.70
326;DHT22;150;52.352;14.058;2023-08-24T01:41:10;19.60;32.60
326;DHT22;150;52.352;14.058;2023-08-24T01:43:55;19.60;32.40
326;DHT22;150;52.352;14.058;2023-08-24T01:46:38;19.60;32.80
326;DHT22;150;52.352;14.058;2023-08-24T01:49:13;19.60;33.20
326;DHT22;150;52.352;14.058;2023-08-24T01:51:50;19.60;33.50
326;DHT22;150;52.352;14.058;2023-08-24T01:54:25;19.50;33.70
326;DHT22;150;52.352;14.058;2023-08-24T01:57:07;19.60;34.00
326;DHT22;150;52.352;14.058;2023-08-24T02:00:04;19.50;33.90
326;DHT22;150;52.352;14.058;2023-08-24T02:02:35;19.50;33.30
326;DHT22;150;52.352;14.058;2023-08-24T02:05:08;19.50;33.70
326;DHT22;150;52.352;14.058;2023-08-24T02:07:44;19.50;33.70
326;DHT22;150;52.352;14.058;2023-08-24T02:10:14;19.50;33.40
326;DHT22;150;52.352;14.058;2023-08-24T02:12:56;19.50;34.00
326;DHT22;150;52.352;14.058;2023-08-24T02:15:40;19.50;34.10
326;DHT22;150;52.352;14.058;2023-08-24T02:18:11;19.50;34.00
326;DHT22;150;52.352;14.058;2023-08-24T02:20:43;19.50;34.40
326;DHT22;150;52.352;14.058;2023-08-24T02:23:33;19.50;34.40
326;DHT22;150;52.352;14.058;2023-08-24T02:26:14;20.00;35.40
326;DHT22;150;52.352;14.058;2023-08-24T02:28:49;19.60;34.10
326;DHT22;150;52.352;14.058;2023-08-24T02:31:23;19.80;34.30
326;DHT22;150;52.352;14.058;2023-08-24T02:33:57;19.70;34.20
326;DHT22;150;52.352;14.058;2023-08-24T02:36:32;19.70;34.40
326;DHT22;150;52.352;14.058;2023-08-24T02:39:07;19.80;34.20
326;DHT22;150;52.352;14.058;2023-08-24T02:41:45;19.80;34.30
326;DHT22;150;52.352;14.058;2023-08-24T02:44:16;20.00;34.70
326;DHT22;150;52.352;14.058;2023-08-24T02:46:59;19.90;34.20
326;DHT22;150;52.352;14.058;2023-08-24T02:49:35;19.90;33.70
326;DHT22;150;52.352;14.058;2023-08-24T02:52:13;20.00;33.90
326;DHT22;150;52.352;14.058;2023-08-24T02:54:43;19.90;33.20
326;DHT22;150;52.352;14.058;2023-08-24T02:57:16;20.00;33.20
326;DHT22;150;52.352;14.058;2023-08-24T02:59:54;20.00;33.20
326;DHT22;150;52.352;14.058;2023-08-24T03:02:29;20.00;33.40
326;DHT22;150;52.352;14.058;2023-08-24T03:05:05;20.10;33.50
326;DHT22;150;52.352;14.058;2023-08-24T03:07:35;20.10;33.10
326;DHT22;150;52.352;14.058;2023-08-24T03:10:19;20.10;33.40
326;DHT22;150;52.352;14.058;2023-08-24T03:12:58;20.10;33.40
326;DHT22;150;52.352;14.058;2023-08-24T03:15:35;20.10;32.90
326;DHT22;150;52.352;14.058;2023-08-24T03:18:26;20.10;33.10
326;DHT22;150;52.352;14.058;2023-08-24T03:21:00;20.20;33.50
326;DHT22;150;52.352;14.058;2023-08-24T03:23:47;20.20;33.60
326;DHT22;150;52.352;14.058;2023-08-24T03:26:51;20.30;33.70
326;DHT22;150;52.352;14.058;2023-08-24T03:29:18;20.30;33.80
326;DHT22;150;52.352;14.058;2023-08-24T03:34:57;20.30;33.00
326;DHT22;150;52.352;14.058;2023-08-24T03:37:34;20.30;32.80
326;DHT22;150;52.352;14.058;2023-08-24T03:40:15;20.30;32.90
326;DHT22;150;52.352;14.058;2023-08-24T03:42:46;20.30;33.10
326;DHT22;150;52.352;14.058;2023-08-24T03:45:27;20.40;33.30
326;DHT22;150;52.352;14.058;2023-08-24T03:47:59;20.30;33.10
326;DHT22;150;52.352;14.058;2023-08-24T03:53:52;20.50;33.60
326;DHT22;150;52.352;14.058;2023-08-24T03:56:57;20.50;34.10
326;DHT22;150;52.352;14.058;2023-08-24T03:59:43;20.50;33.60
326;DHT22;150;52.352;14.058;2023-08-24T04:02:52;20.40;33.60
326;DHT22;150;52.352;14.058;2023-08-24T04:05:41;20.40;33.40
326;DHT22;150;52.352;14.058;2023-08-24T04:08:48;20.40;33.60
326;DHT22;150;52.352;14.058;2023-08-24T04:11:47;20.40;33.40
326;DHT22;150;52.352;14.058;2023-08-24T04:14:43;20.40;33.90
326;DHT22;150;52.352;14.058;2023-08-24T04:17:41;20.40;33.70
326;DHT22;150;52.352;14.058;2023-08-24T04:20:15;20.40;33.70
326;DHT22;150;52.352;14.058;2023-08-24T04:22:46;20.40;33.70
326;DHT22;150;52.352;14.058;2023-08-24T04:25:39;20.50;33.90
326;DHT22;150;52.352;14.058;2023-08-24T04:28:23;20.50;34.10
326;DHT22;150;52.352;14.058;2023-08-24T04:30:59;20.50;34.30
326;DHT22;150;52.352;14.058;2023-08-24T04:33:42;20.60;34.30
326;DHT22;150;52.352;14.058;2023-08-24T04:36:24;20.60;34.30
326;DHT22;150;52.352;14.058;2023-08-24T04:39:22;20.60;34.10
326;DHT22;150;52.352;14.058;2023-08-24T04:45:09;20.70;34.20
326;DHT22;150;52.352;14.058;2023-08-24T04:47:54;20.70;34.50
326;DHT22;150;52.352;14.058;2023-08-24T04:50:26;20.80;34.60
326;DHT22;150;52.352;14.058;2023-08-24T04:52:53;20.80;34.10
326;DHT22;150;52.352;14.058;2023-08-24T04:55:20;20.80;33.70
326;DHT22;150;52.352;14.058;2023-08-24T04:57:46;20.90;33.70
326;DHT22;150;52.352;14.058;2023-08-24T05:00:15;20.90;33.60
326;DHT22;150;52.352;14.058;2023-08-24T05:02:42;21.00;33.80
326;DHT22;150;52.352;14.058;2023-08-24T05:05:09;21.00;33.60
326;DHT22;150;52.352;14.058;2023-08-24T05:07:38;21.10;33.70
326;DHT22;150;52.352;14.058;2023-08-24T05:10:06;21.10;34.20
326;DHT22;150;52.352;14.058;2023-08-24T05:12:33;21.10;34.10
326;DHT22;150;52.352;14.058;2023-08-24T05:15:01;21.20;34.10
326;DHT22;150;52.352;14.058;2023-08-24T05:17:29;21.20;34.00
326;DHT22;150;52.352;14.058;2023-08-24T05:19:57;21.20;34.30
326;DHT22;150;52.352;14.058;2023-08-24T05:22:26;21.40;34.00
326;DHT22;150;52.352;14.058;2023-08-24T05:24:54;21.40;34.00
326;DHT22;150;52.352;14.058;2023-08-24T05:27:21;21.40;34.00
326;DHT22;150;52.352;14.058;2023-08-24T05:29:48;21.40;34.10
326;DHT22;150;52.352;14.058;2023-08-24T05:32:14;21.50;34.00
326;DHT22;150;52.352;14.058;2023-08-24T05:34:44;21.50;33.80
326;DHT22;150;52.352;14.058;2023-08-24T05:37:11;21.50;33.70
326;DHT22;150;52.352;14.058;2023-08-24T05:39:38;21.70;34.10
326;DHT22;150;52.352;14.058;2023-08-24T05:42:05;21.70;34.10
326;DHT22;150;52.352;14.058;2023-08-24T05:44:31;21.80;34.20
326;DHT22;150;52.352;14.058;2023-08-24T05:46:58;21.90;33.90
326;DHT22;150;52.352;14.058;2023-08-24T05:49:24;22.00;33.60
326;DHT22;150;52.352;14.058;2023-08-24T05:51:52;22.10;33.50
326;DHT22;150;52.352;14.058;2023-08-24T05:54:19;22.10;33.60
326;DHT22;150;52.352;14.058;2023-08-24T05:56:46;22.20;32.90
326;DHT22;150;52.352;14.058;2023-08-24T05:59:13;22.20;32.30
326;DHT22;150;52.352;14.058;2023-08-24T06:01:40;22.30;32.30
326;DHT22;150;52.352;14.058;2023-08-24T06:04:07;22.40;32.30
326;DHT22;150;52.352;14.058;2023-08-24T06:06:34;22.50;31.90
326;DHT22;150;52.352;14.058;2023-08-24T06:09:04;22.50;32.10
326;DHT22;150;52.352;14.058;2023-08-24T06:11:32;22.60;32.00
326;DHT22;150;52.352;14.058;2023-08-24T06:14:07;22.70;31.80
326;DHT22;150;52.352;14.058;2023-08-24T06:16:34;22.80;31.20
326;DHT22;150;52.352;14.058;2023-08-24T06:19:00;22.80;31.30
326;DHT22;150;52.352;14.058;2023-08-24T06:21:29;22.90;31.30
326;DHT22;150;52.352;14.058;2023-08-24T06:23:55;22.90;30.40
326;DHT22;150;52.352;14.058;2023-08-24T06:26:23;23.00;30.80
326;DHT22;150;52.352;14.058;2023-08-24T06:28:51;22.90;30.90
326;DHT22;150;52.352;14.058;2023-08-24T06:31:17;23.00;31.00
326;DHT22;150;52.352;14.058;2023-08-24T06:33:44;23.00;29.80
326;DHT22;150;52.352;14.058;2023-08-24T06:36:10;23.10;29.90
326;DHT22;150;52.352;14.058;2023-08-24T06:38:37;23.10;29.70
326;DHT22;150;52.352;14.058;2023-08-24T06:41:04;23.10;29.10
326;DHT22;150;52.352;14.058;2023-08-24T06:43:32;23.10;29.20
326;DHT22;150;52.352;14.058;2023-08-24T06:45:59;23.10;29.20
326;DHT22;150;52.352;14.058;2023-08-24T06:48:25;23.10;28.90
326;DHT22;150;52.352;14.058;2023-08-24T06:50:52;23.20;28.80
326;DHT22;150;52.352;14.058;2023-08-24T06:53:19;23.30;28.80
326;DHT22;150;52.352;14.058;2023-08-24T06:55:45;23.50;28.60
326;DHT22;150;52.352;14.058;2023-08-24T06:58:12;23.60;27.90
326;DHT22;150;52.352;14.058;2023-08-24T07:00:40;23.70;28.20
326;DHT22;150;52.352;14.058;2023-08-24T07:03:07;24.10;28.10
326;DHT22;150;52.352;14.058;2023-08-24T07:05:33;23.90;27.60
326;DHT22;150;52.352;14.058;2023-08-24T07:08:00;24.10;27.30
326;DHT22;150;52.352;14.058;2023-08-24T07:10:28;24.30;26.70
326;DHT22;150;52.352;14.058;2023-08-24T07:13:06;24.40;25.10
326;DHT22;150;52.352;14.058;2023-08-24T07:15:40;24.50;24.60
326;DHT22;150;52.352;14.058;2023-08-24T07:18:06;24.60;24.50
326;DHT22;150;52.352;14.058;2023-08-24T07:20:34;24.70;21.80
326;DHT22;150;52.352;14.058;2023-08-24T07:23:01;24.60;21.90
326;DHT22;150;52.352;14.058;2023-08-24T07:25:28;24.60;21.90
326;DHT22;150;52.352;14.058;2023-08-24T07:27:54;24.60;22.00
326;DHT22;150;52.352;14.058;2023-08-24T07:30:23;24.60;22.40
326;DHT22;150;52.352;14.058;2023-08-24T07:32:51;24.70;22.40
326;DHT22;150;52.352;14.058;2023-08-24T07:35:19;24.80;22.80
326;DHT22;150;52.352;14.058;2023-08-24T07:37:46;25.00;22.40
326;DHT22;150;52.352;14.058;2023-08-24T07:40:30;25.20;22.20
326;DHT22;150;52.352;14.058;2023-08-24T07:42:56;25.00;22.00
326;DHT22;150;52.352;14.058;2023-08-24T07:45:23;25.00;22.30
326;DHT22;150;52.352;14.058;2023-08-24T07:47:52;25.20;22.90
326;DHT22;150;52.352;14.058;2023-08-24T07:50:19;25.20;22.10
326;DHT22;150;52.352;14.058;2023-08-24T07:52:48;25.20;22.50
326;DHT22;150;52.352;14.058;2023-08-24T07:55:15;25.20;22.30
326;DHT22;150;52.352;14.058;2023-08-24T07:57:43;25.40;21.90
326;DHT22;150;52.352;14.058;2023-08-24T08:00:13;25.50;22.00
326;DHT22;150;52.352;14.058;2023-08-24T08:02:40;25.70;22.20
326;DHT22;150;52.352;14.058;2023-08-24T08:05:08;25.80;20.50
326;DHT22;150;52.352;14.058;2023-08-24T08:07:36;26.00;20.90
326;DHT22;150;52.352;14.058;2023-08-24T08:10:04;26.10;19.90
326;DHT22;150;52.352;14.058;2023-08-24T08:12:31;26.20;19.10
326;DHT22;150;52.352;14.058;2023-08-24T08:15:02;26.30;19.10
326;DHT22;150;52.352;14.058;2023-08-24T08:17:28;26.40;19.10
326;DHT22;150;52.352;14.058;2023-08-24T08:19:56;26.30;18.00
326;DHT22;150;52.352;14.058;2023-08-24T08:22:24;26.20;18.00
326;DHT22;150;52.352;14.058;2023-08-24T08:24:51;26.10;18.70
326;DHT22;150;52.352;14.058;2023-08-24T08:27:19;26.10;19.00
326;DHT22;150;52.352;14.058;2023-08-24T08:29:46;26.30;18.50
326;DHT22;150;52.352;14.058;2023-08-24T08:32:12;26.50;18.70
326;DHT22;150;52.352;14.058;2023-08-24T08:34:39;26.50;17.90
326;DHT22;150;52.352;14.058;2023-08-24T08:37:09;26.50;18.20
326;DHT22;150;52.352;14.058;2023-08-24T08:39:37;27.20;18.80
326;DHT22;150;52.352;14.058;2023-08-24T08:42:04;27.00;17.50
326;DHT22;150;52.352;14.058;2023-08-24T08:44:31;26.90;16.90
326;DHT22;150;52.352;14.058;2023-08-24T08:46:59;27.60;17.30
326;DHT22;150;52.352;14.058;2023-08-24T08:49:29;27.20;17.10
326;DHT22;150;52.352;14.058;2023-08-24T08:51:56;27.20;16.40
326;DHT22;150;52.352;14.058;2023-08-24T08:54:23;27.00;15.60
326;DHT22;150;52.352;14.058;2023-08-24T08:56:51;27.10;16.30
326;DHT22;150;52.352;14.058;2023-08-24T08:59:18;27.00;15.70
326;DHT22;150;52.352;14.058;2023-08-24T09:01:45;27.00;15.70
326;DHT22;150;52.352;14.058;2023-08-24T09:04:13;27.00;15.40
326;DHT22;150;52.352;14.058;2023-08-24T09:06:40;27.10;15.30
326;DHT22;150;52.352;14.058;2023-08-24T09:09:09;27.30;15.40
326;DHT22;150;52.352;14.058;2023-08-24T09:11:36;27.50;15.30
326;DHT22;150;52.352;14.058;2023-08-24T09:14:09;27.70;14.30
326;DHT22;150;52.352;14.058;2023-08-24T09:16:35;28.00;13.70
326;DHT22;150;52.352;14.058;2023-08-24T09:19:05;28.20;13.80
326;DHT22;150;52.352;14.058;2023-08-24T09:21:36;28.30;14.00
326;DHT22;150;52.352;14.058;2023-08-24T09:24:05;28.40;13.70
326;DHT22;150;52.352;14.058;2023-08-24T09:26:33;28.40;13.50
326;DHT22;150;52.352;14.058;2023-08-24T09:29:05;28.30;13.50
326;DHT22;150;52.352;14.058;2023-08-24T09:31:38;28.40;13.00
326;DHT22;150;52.352;14.058;2023-08-24T09:34:05;28.30;13.60
326;DHT22;150;52.352;14.058;2023-08-24T09:36:32;28.10;12.90
326;DHT22;150;52.352;14.058;2023-08-24T09:38:59;28.00;13.10
326;DHT22;150;52.352;14.058;2023-08-24T09:41:37;27.90;12.50
326;DHT22;150;52.352;14.058;2023-08-24T09:44:04;27.90;12.60
326;DHT22;150;52.352;14.058;2023-08-24T09:46:30;27.80;12.50
326;DHT22;150;52.352;14.058;2023-08-24T09:48:58;27.80;12.40
326;DHT22;150;52.352;14.058;2023-08-24T09:51:39;27.80;12.50
326;DHT22;150;52.352;14.058;2023-08-24T09:54:07;27.90;13.00
326;DHT22;150;52.352;14.058;2023-08-24T09:56:36;27.80;12.20
326;DHT22;150;52.352;14.058;2023-08-24T09:59:10;27.80;12.50
326;DHT22;150;52.352;14.058;2023-08-24T10:01:37;27.80;12.50
326;DHT22;150;52.352;14.058;2023-08-24T10:04:09;27.70;12.10
326;DHT22;150;52.352;14.058;2023-08-24T10:06:38;27.60;12.20
326;DHT22;150;52.352;14.058;2023-08-24T10:09:07;27.70;12.00
326;DHT22;150;52.352;14.058;2023-08-24T10:11:36;27.60;12.40
326;DHT22;150;52.352;14.058;2023-08-24T10:14:12;27.70;12.70
326;DHT22;150;52.352;14.058;2023-08-24T10:16:41;27.70;12.70
326;DHT22;150;52.352;14.058;2023-08-24T10:19:10;27.80;12.50
326;DHT22;150;52.352;14.058;2023-08-24T10:21:39;27.80;12.20
326;DHT22;150;52.352;14.058;2023-08-24T10:24:08;27.90;11.20
326;DHT22;150;52.352;14.058;2023-08-24T10:26:36;28.00;11.80
326;DHT22;150;52.352;14.058;2023-08-24T10:29:06;28.10;11.20
326;DHT22;150;52.352;14.058;2023-08-24T10:31:33;28.20;11.20
326;DHT22;150;52.352;14.058;2023-08-24T10:34:01;28.30;11.90
326;DHT22;150;52.352;14.058;2023-08-24T10:36:30;28.30;10.80
326;DHT22;150;52.352;14.058;2023-08-24T10:38:56;28.40;10.50
326;DHT22;150;52.352;14.058;2023-08-24T10:41:26;28.50;10.30
326;DHT22;150;52.352;14.058;2023-08-24T10:44:04;28.40;9.00
326;DHT22;150;52.352;14.058;2023-08-24T10:46:35;28.30;9.40
326;DHT22;150;52.352;14.058;2023-08-24T10:49:04;28.30;8.90
326;DHT22;150;52.352;14.058;2023-08-24T10:51:43;28.40;8.30
326;DHT22;150;52.352;14.058;2023-08-24T10:54:10;28.60;8.80
326;DHT22;150;52.352;14.058;2023-08-24T10:56:38;28.80;8.90
326;DHT22;150;52.352;14.058;2023-08-24T10:59:12;28.90;8.50
326;DHT22;150;52.352;14.058;2023-08-24T11:01:40;29.10;8.60
326;DHT22;150;52.352;14.058;2023-08-24T11:04:07;29.30;9.50
326;DHT22;150;52.352;14.058;2023-08-24T11:06:51;29.40;8.80
326;DHT22;150;52.352;14.058;2023-08-24T11:09:18;29.40;8.30
326;DHT22;150;52.352;14.058;2023-08-24T11:11:56;29.60;8.90
326;DHT22;150;52.352;14.058;2023-08-24T11:14:23;29.70;8.00
326;DHT22;150;52.352;14.058;2023-08-24T11:16:52;29.80;7.70
326;DHT22;150;52.352;14.058;2023-08-24T11:19:19;29.90;7.90
326;DHT22;150;52.352;14.058;2023-08-24T11:21:47;30.00;8.70
326;DHT22;150;52.352;14.058;2023-08-24T11:24:14;30.10;7.90
326;DHT22;150;52.352;14.058;2023-08-24T11:26:42;30.10;8.50
326;DHT22;150;52.352;14.058;2023-08-24T11:29:09;30.00;7.50
326;DHT22;150;52.352;14.058;2023-08-24T11:31:36;30.00;8.10
326;DHT22;150;52.352;14.058;2023-08-24T11:34:04;29.90;7.40
326;DHT22;150;52.352;14.058;2023-08-24T11:36:31;30.00;8.00
326;DHT22;150;52.352;14.058;2023-08-24T11:38:59;30.10;7.60
326;DHT22;150;52.352;14.058;2023-08-24T11:41:27;30.20;7.00
326;DHT22;150;52.352;14.058;2023-08-24T11:44:00;30.10;8.10
326;DHT22;150;52.352;14.058;2023-08-24T11:46:29;30.10;7.60
326;DHT22;150;52.352;14.058;2023-08-24T11:48:57;30.20;8.40
326;DHT22;150;52.352;14.058;2023-08-24T11:51:24;30.20;8.40
326;DHT22;150;52.352;14.058;2023-08-24T11:53:51;30.30;7.80
326;DHT22;150;52.352;14.058;2023-08-24T11:56:19;30.20;7.70
326;DHT22;150;52.352;14.058;2023-08-24T11:58:48;30.30;7.10
326;DHT22;150;52.352;14.058;2023-08-24T12:01:16;30.40;8.40
326;DHT22;150;52.352;14.058;2023-08-24T12:03:43;30.60;7.00
326;DHT22;150;52.352;14.058;2023-08-24T12:06:11;30.70;7.50
326;DHT22;150;52.352;14.058;2023-08-24T12:08:39;30.70;7.60
326;DHT22;150;52.352;14.058;2023-08-24T12:11:13;30.70;6.80
326;DHT22;150;52.352;14.058;2023-08-24T12:13:45;30.70;6.90
326;DHT22;150;52.352;14.058;2023-08-24T12:16:12;30.60;8.00
326;DHT22;150;52.352;14.058;2023-08-24T12:18:47;30.60;7.70
326;DHT22;150;52.352;14.058;2023-08-24T12:21:14;30.50;7.90
326;DHT22;150;52.352;14.058;2023-08-24T12:23:41;30.60;7.80
326;DHT22;150;52.352;14.058;2023-08-24T12:26:08;30.70;7.70
326;DHT22;150;52.352;14.058;2023-08-24T12:28:34;30.60;7.40
326;DHT22;150;52.352;14.058;2023-08-24T12:31:05;30.50;7.50
326;DHT22;150;52.352;14.058;2023-08-24T12:33:32;30.50;7.50
326;DHT22;150;52.352;14.058;2023-08-24T12:35:59;30.70;8.10
326;DHT22;150;52.352;14.058;2023-08-24T12:38:26;30.50;7.10
326;DHT22;150;52.352;14.058;2023-08-24T12:40:53;30.50;7.40
326;DHT22;150;52.352;14.058;2023-08-24T12:43:20;30.60;7.70
326;DHT22;150;52.352;14.058;2023-08-24T12:45:47;30.80;8.30
326;DHT22;150;52.352;14.058;2023-08-24T12:48:15;30.70;7.00
326;DHT22;150;52.352;14.058;2023-08-24T12:50:42;30.60;7.80
326;DHT22;150;52.352;14.058;2023-08-24T12:53:09;30.50;7.70
326;DHT22;150;52.352;14.058;2023-08-24T12:55:39;30.50;7.70
326;DHT22;150;52.352;14.058;2023-08-24T12:58:06;30.70;7.60
326;DHT22;150;52.352;14.058;2023-08-24T13:00:32;30.90;7.90
326;DHT22;150;52.352;14.058;2023-08-24T13:02:59;30.90;6.80
326;DHT22;150;52.352;14.058;2023-08-24T13:05:27;31.00;6.40
326;DHT22;150;52.352;14.058;2023-08-24T13:07:54;31.10;6.70
326;DHT22;150;52.352;14.058;2023-08-24T13:10:21;31.10;6.90
326;DHT22;150;52.352;14.058;2023-08-24T13:12:48;31.10;6.90
326;DHT22;150;52.352;14.058;2023-08-24T13:15:15;31.20;7.00
326;DHT22;150;52.352;14.058;2023-08-24T13:17:41;31.20;6.80
326;DHT22;150;52.352;14.058;2023-08-24T13:20:08;31.20;6.50
326;DHT22;150;52.352;14.058;2023-08-24T13:22:37;31.20;6.40
326;DHT22;150;52.352;14.058;2023-08-24T13:25:04;31.20;7.40
326;DHT22;150;52.352;14.058;2023-08-24T13:27:31;31.20;7.10
326;DHT22;150;52.352;14.058;2023-08-24T13:29:59;31.10;7.10
326;DHT22;150;52.352;14.058;2023-08-24T13:32:26;31.00;6.90
326;DHT22;150;52.352;14.058;2023-08-24T13:34:53;31.10;7.10
326;DHT22;150;52.352;14.058;2023-08-24T13:37:21;31.20;7.30
326;DHT22;150;52.352;14.058;2023-08-24T13:39:50;31.20;7.30
326;DHT22;150;52.352;14.058;2023-08-24T13:42:17;31.20;8.00
326;DHT22;150;52.352;14.058;2023-08-24T13:44:44;31.20;8.00
326;DHT22;150;52.352;14.058;2023-08-24T13:47:11;31.30;8.50
326;DHT22;150;52.352;14.058;2023-08-24T13:49:37;31.30;6.90
326;DHT22;150;52.352;14.058;2023-08-24T13:52:04;31.10;7.00
326;DHT22;150;52.352;14.058;2023-08-24T13:54:31;31.10;7.30
326;DHT22;150;52.352;14.058;2023-08-24T13:56:59;31.00;7.50
326;DHT22;150;52.352;14.058;2023-08-24T13:59:27;31.00;7.40
326;DHT22;150;52.352;14.058;2023-08-24T14:01:54;31.00;7.40
326;DHT22;150;52.352;14.058;2023-08-24T14:04:20;31.10;7.60
326;DHT22;150;52.352;14.058;2023-08-24T14:06:47;30.90;7.40
326;DHT22;150;52.352;14.058;2023-08-24T14:09:14;31.20;8.10
326;DHT22;150;52.352;14.058;2023-08-24T14:11:41;30.80;8.00
326;DHT22;150;52.352;14.058;2023-08-24T14:14:09;30.80;8.60
326;DHT22;150;52.352;14.058;2023-08-24T14:16:36;30.90;7.90
326;DHT22;150;52.352;14.058;2023-08-24T14:19:03;30.80;7.50
326;DHT22;150;52.352;14.058;2023-08-24T14:21:29;30.80;8.20
326;DHT22;150;52.352;14.058;2023-08-24T14:23:56;30.70;8.50
326;DHT22;150;52.352;14.058;2023-08-24T14:26:23;30.70;8.40
326;DHT22;150;52.352;14.058;2023-08-24T14:28:51;30.70;8.50
326;DHT22;150;52.352;14.058;2023-08-24T14:31:20;30.70;7.90
326;DHT22;150;52.352;14.058;2023-08-24T14:33:47;30.80;8.10
326;DHT22;150;52.352;14.058;2023-08-24T14:36:14;30.90;7.90
326;DHT22;150;52.352;14.058;2023-08-24T14:38:41;30.80;8.70
326;DHT22;150;52.352;14.058;2023-08-24T14:41:09;30.70;8.40
326;DHT22;150;52.352;14.058;2023-08-24T14:43:36;30.60;8.90
326;DHT22;150;52.352;14.058;2023-08-24T14:46:02;30.40;8.40
326;DHT22;150;52.352;14.058;2023-08-24T14:48:30;30.50;8.80
326;DHT22;150;52.352;14.058;2023-08-24T14:50:57;30.50;9.40
326;DHT22;150;52.352;14.058;2023-08-24T14:53:24;30.60;8.90
326;DHT22;150;52.352;14.058;2023-08-24T14:55:52;30.70;8.20
326;DHT22;150;52.352;14.058;2023-08-24T14:58:19;30.70;8.20
326;DHT22;150;52.352;14.058;2023-08-24T15:00:46;30.70;8.30
326;DHT22;150;52.352;14.058;2023-08-24T15:03:13;30.90;8.30
326;DHT22;150;52.352;14.058;2023-08-24T15:05:44;30.90;8.20
326;DHT22;150;52.352;14.058;2023-08-24T15:08:11;30.80;8.10
326;DHT22;150;52.352;14.058;2023-08-24T15:10:38;30.80;8.10
326;DHT22;150;52.352;14.058;2023-08-24T15:13:05;30.70;7.70
326;DHT22;150;52.352;14.058;2023-08-24T15:15:35;30.80;7.90
326;DHT22;150;52.352;14.058;2023-08-24T15:18:03;30.90;8.00
326;DHT22;150;52.352;14.058;2023-08-24T15:20:29;30.90;7.60
326;DHT22;150;52.352;14.058;2023-08-24T15:22:58;30.90;7.90
326;DHT22;150;52.352;14.058;2023-08-24T15:25:25;30.90;7.90
326;DHT22;150;52.352;14.058;2023-08-24T15:27:52;30.80;7.60
326;DHT22;150;52.352;14.058;2023-08-24T15:30:18;30.90;7.80
326;DHT22;150;52.352;14.058;2023-08-24T15:32:45;30.90;7.80
326;DHT22;150;52.352;14.058;2023-08-24T15:35:12;31.00;7.90
326;DHT22;150;52.352;14.058;2023-08-24T15:37:38;31.00;7.40
326;DHT22;150;52.352;14.058;2023-08-24T15:40:08;30.90;8.00
326;DHT22;150;52.352;14.058;2023-08-24T15:42:36;30.90;7.20
326;DHT22;150;52.352;14.058;2023-08-24T15:45:03;30.90;7.60
326;DHT22;150;52.352;14.058;2023-08-24T15:47:29;30.90;8.00
326;DHT22;150;52.352;14.058;2023-08-24T15:49:56;31.00;8.30
326;DHT22;150;52.352;14.058;2023-08-24T15:52:23;31.00;8.10
326;DHT22;150;52.352;14.058;2023-08-24T15:54:52;30.80;8.20
326;DHT22;150;52.352;14.058;2023-08-24T15:57:20;30.80;8.20
326;DHT22;150;52.352;14.058;2023-08-24T15:59:47;30.70;7.90
326;DHT22;150;52.352;14.058;2023-08-24T16:02:14;30.80;8.40
326;DHT22;150;52.352;14.058;2023-08-24T16:04:40;30.90;8.40
326;DHT22;150;52.352;14.058;2023-08-24T16:07:07;30.80;7.90
326;DHT22;150;52.352;14.058;2023-08-24T16:09:34;30.80;7.70
326;DHT22;150;52.352;14.058;2023-08-24T16:12:00;30.80;7.90
326;DHT22;150;52.352;14.058;2023-08-24T16:14:28;30.80;7.60
326;DHT22;150;52.352;14.058;2023-08-24T16:16:55;30.70;8.30
326;DHT22;150;52.352;14.058;2023-08-24T16:19:22;30.70;8.20
326;DHT22;150;52.352;14.058;2023-08-24T16:21:48;30.60;8.90
326;DHT22;150;52.352;14.058;2023-08-24T16:24:15;30.50;9.10
326;DHT22;150;52.352;14.058;2023-08-24T16:26:42;30.40;8.30
326;DHT22;150;52.352;14.058;2023-08-24T16:29:09;30.40;9.30
326;DHT22;150;52.352;14.058;2023-08-24T16:31:36;30.40;8.30
326;DHT22;150;52.352;14.058;2023-08-24T16:34:03;30.30;8.50
326;DHT22;150;52.352;14.058;2023-08-24T16:36:30;30.20;9.20
326;DHT22;150;52.352;14.058;2023-08-24T16:38:57;30.30;9.30
326;DHT22;150;52.352;14.058;2023-08-24T16:41:23;30.20;9.20
326;DHT22;150;52.352;14.058;2023-08-24T16:43:50;30.10;9.20
326;DHT22;150;52.352;14.058;2023-08-24T16:46:17;30.10;9.80
326;DHT22;150;52.352;14.058;2023-08-24T16:48:45;30.10;9.70
326;DHT22;150;52.352;14.058;2023-08-24T16:51:11;30.00;9.10
326;DHT22;150;52.352;14.058;2023-08-24T16:53:38;29.90;9.70
326;DHT22;150;52.352;14.058;2023-08-24T16:56:05;29.90;9.80
326;DHT22;150;52.352;14.058;2023-08-24T16:58:32;29.80;10.00
326;DHT22;150;52.352;14.058;2023-08-24T17:01:04;29.70;9.90
326;DHT22;150;52.352;14.058;2023-08-24T17:03:31;29.70;9.90
326;DHT22;150;52.352;14.058;2023-08-24T17:05:59;29.60;10.00